Skip Navigation LinksHome page > Tools > METAR decoder Skip Navigation Links

METAR decoder

Settings

METAR

Chicago O'Hare Intl, Chicago

For information only: do not use for flight planning or navigation.
Latest weather
Observation time Saturday, July 26, 2014 7:51 AM CDT
Local time Saturday, July 26, 2014 8:09 AM CDT
Flight conditions Visual Meteorological Conditions
Winds
Wind direction South-Southwest (200°)
Wind speed 5 mph
Visibility 10 mi.
Sky condition
Ceiling 5,500 ft. broken clouds
Cloud layer scattered clouds 3,500 ft.
Cloud layer broken clouds 5,500 ft.
Cloud layer broken clouds 20,000 ft.
Temperature 70°F
Dewpoint 61°F
Altimeter 29.85 in.Hg
Derived measurements
Relative humidity 73%
Density altitude 1045 ft.
Sea-level pressure 29.84 in.Hg
Remarks
Automated weather observing station with precipitation discriminator.
METAR KORD 261251Z 20004KT 10SM SCT035 BKN055 BKN200 21/16 A2985 RMK AO2 SLP104 T02110161

InnerDrive.Weather 4.0.5294.0 Release CLR 4.0.30319.34014
Copyright ©2014 Inner Drive Technology. All rights reserved. Portions Copyright ©1986-2014 David Braverman.

Find weather

Site navigation


Skip Navigation Links

Place info

Page info

PayPal - The safer, easier way to pay online!

Return home.

Copyright ©2014 Inner Drive Technology. Purveyors of fine, hand-crafted computer software. Page printed 2014-07-26T13:09:31 UTC.